sensor_id;sensor_type;location;lat;lon;timestamp;pressure;altitude;pressure_sealevel;temperature
82780;BMP280;72511;45.120;20.720;2023-09-19T00:06:29;100188.47;;;21.62
82780;BMP280;72511;45.120;20.720;2023-09-19T00:16:30;100176.44;;;21.65
82780;BMP280;72511;45.120;20.720;2023-09-19T00:26:31;100191.16;;;21.89
82780;BMP280;72511;45.120;20.720;2023-09-19T00:36:32;100199.91;;;21.93
82780;BMP280;72511;45.120;20.720;2023-09-19T00:46:33;100197.91;;;21.94
82780;BMP280;72511;45.120;20.720;2023-09-19T00:56:34;100201.91;;;21.93
82780;BMP280;72511;45.120;20.720;2023-09-19T01:06:34;100180.88;;;21.90
82780;BMP280;72511;45.120;20.720;2023-09-19T01:16:47;100167.88;;;21.85
82780;BMP280;72511;45.120;20.720;2023-09-19T01:37:03;100186.41;;;21.84
82780;BMP280;72511;45.120;20.720;2023-09-19T01:47:13;100192.66;;;21.85
82780;BMP280;72511;45.120;20.720;2023-09-19T01:57:30;100201.97;;;21.87
82780;BMP280;72511;45.120;20.720;2023-09-19T02:07:34;100185.13;;;21.91
82780;BMP280;72511;45.120;20.720;2023-09-19T02:17:34;100194.41;;;21.93
82780;BMP280;72511;45.120;20.720;2023-09-19T02:27:35;100216.22;;;21.91
82780;BMP280;72511;45.120;20.720;2023-09-19T02:37:36;100175.00;;;21.47
82780;BMP280;72511;45.120;20.720;2023-09-19T02:47:36;100218.28;;;21.47
82780;BMP280;72511;45.120;20.720;2023-09-19T02:57:37;100206.53;;;21.41
82780;BMP280;72511;45.120;20.720;2023-09-19T03:07:37;100187.03;;;21.34
82780;BMP280;72511;45.120;20.720;2023-09-19T03:17:42;100142.44;;;21.19
82780;BMP280;72511;45.120;20.720;2023-09-19T03:27:44;100118.22;;;21.01
82780;BMP280;72511;45.120;20.720;2023-09-19T03:37:46;100116.72;;;20.89
82780;BMP280;72511;45.120;20.720;2023-09-19T03:47:48;100076.47;;;20.69
82780;BMP280;72511;45.120;20.720;2023-09-19T03:57:51;100062.44;;;20.67
82780;BMP280;72511;45.120;20.720;2023-09-19T04:07:52;100078.22;;;20.72
82780;BMP280;72511;45.120;20.720;2023-09-19T04:17:54;100078.44;;;20.85
82780;BMP280;72511;45.120;20.720;2023-09-19T04:27:55;100097.72;;;20.85
82780;BMP280;72511;45.120;20.720;2023-09-19T04:37:56;100101.72;;;20.84
82780;BMP280;72511;45.120;20.720;2023-09-19T04:47:57;100109.69;;;20.82
82780;BMP280;72511;45.120;20.720;2023-09-19T04:57:57;100128.44;;;20.95
82780;BMP280;72511;45.120;20.720;2023-09-19T05:07:58;100131.44;;;20.91
82780;BMP280;72511;45.120;20.720;2023-09-19T05:17:58;100129.72;;;20.94
82780;BMP280;72511;45.120;20.720;2023-09-19T05:27:59;100147.47;;;20.98
82780;BMP280;72511;45.120;20.720;2023-09-19T05:38:00;100138.47;;;20.98
82780;BMP280;72511;45.120;20.720;2023-09-19T05:48:11;100164.25;;;21.28
82780;BMP280;72511;45.120;20.720;2023-09-19T05:58:12;100146.41;;;21.67
82780;BMP280;72511;45.120;20.720;2023-09-19T06:08:13;100160.09;;;21.89
82780;BMP280;72511;45.120;20.720;2023-09-19T06:18:13;100166.81;;;23.20
82780;BMP280;72511;45.120;20.720;2023-09-19T06:28:14;100158.47;;;23.26
82780;BMP280;72511;45.120;20.720;2023-09-19T06:38:14;100158.16;;;24.69
82780;BMP280;72511;45.120;20.720;2023-09-19T06:48:15;100183.69;;;26.44
82780;BMP280;72511;45.120;20.720;2023-09-19T06:58:15;100184.47;;;25.07
82780;BMP280;72511;45.120;20.720;2023-09-19T07:08:16;100177.53;;;25.01
82780;BMP280;72511;45.120;20.720;2023-09-19T07:18:18;100192.63;;;24.68
82780;BMP280;72511;45.120;20.720;2023-09-19T07:28:18;100187.47;;;26.00
82780;BMP280;72511;45.120;20.720;2023-09-19T07:38:19;100177.63;;;26.66
82780;BMP280;72511;45.120;20.720;2023-09-19T07:48:20;100190.22;;;29.18
82780;BMP280;72511;45.120;20.720;2023-09-19T07:58:20;100192.06;;;29.77
82780;BMP280;72511;45.120;20.720;2023-09-19T08:08:21;100190.91;;;30.44
82780;BMP280;72511;45.120;20.720;2023-09-19T08:18:21;100184.63;;;29.72
82780;BMP280;72511;45.120;20.720;2023-09-19T08:28:22;100172.78;;;29.96
82780;BMP280;72511;45.120;20.720;2023-09-19T08:38:23;100180.78;;;30.73
82780;BMP280;72511;45.120;20.720;2023-09-19T08:48:27;100167.34;;;31.13
82780;BMP280;72511;45.120;20.720;2023-09-19T08:58:31;100194.13;;;29.69
82780;BMP280;72511;45.120;20.720;2023-09-19T09:08:35;100181.50;;;28.69
82780;BMP280;72511;45.120;20.720;2023-09-19T09:18:36;100163.88;;;28.52
82780;BMP280;72511;45.120;20.720;2023-09-19T09:28:45;100171.16;;;29.54
82780;BMP280;72511;45.120;20.720;2023-09-19T09:38:46;100164.66;;;29.52
82780;BMP280;72511;45.120;20.720;2023-09-19T09:48:58;100148.59;;;29.20
82780;BMP280;72511;45.120;20.720;2023-09-19T09:58:58;100148.81;;;29.00
82780;BMP280;72511;45.120;20.720;2023-09-19T10:09:07;100159.72;;;29.74
82780;BMP280;72511;45.120;20.720;2023-09-19T10:19:08;100151.22;;;30.46
82780;BMP280;72511;45.120;20.720;2023-09-19T10:29:10;100145.19;;;30.57
82780;BMP280;72511;45.120;20.720;2023-09-19T10:39:15;100143.00;;;30.89
82780;BMP280;72511;45.120;20.720;2023-09-19T10:49:16;100119.66;;;31.11
82780;BMP280;72511;45.120;20.720;2023-09-19T10:59:17;100118.06;;;31.34
82780;BMP280;72511;45.120;20.720;2023-09-19T11:09:19;100114.09;;;31.54
82780;BMP280;72511;45.120;20.720;2023-09-19T11:19:19;100091.44;;;31.16
82780;BMP280;72511;45.120;20.720;2023-09-19T11:29:30;100086.91;;;31.21
82780;BMP280;72511;45.120;20.720;2023-09-19T11:39:31;100083.16;;;31.88
82780;BMP280;72511;45.120;20.720;2023-09-19T11:49:32;100101.16;;;32.68
82780;BMP280;72511;45.120;20.720;2023-09-19T11:59:32;100110.94;;;31.77
82780;BMP280;72511;45.120;20.720;2023-09-19T12:09:33;100121.88;;;31.12
82780;BMP280;72511;45.120;20.720;2023-09-19T12:19:33;100126.22;;;30.31
82780;BMP280;72511;45.120;20.720;2023-09-19T12:29:48;100134.78;;;29.30
82780;BMP280;72511;45.120;20.720;2023-09-19T12:39:50;100121.03;;;30.03
82780;BMP280;72511;45.120;20.720;2023-09-19T12:50:11;100135.69;;;30.77
82780;BMP280;72511;45.120;20.720;2023-09-19T13:00:12;100137.97;;;30.71
82780;BMP280;72511;45.120;20.720;2023-09-19T13:10:13;100133.72;;;30.87
82780;BMP280;72511;45.120;20.720;2023-09-19T13:20:23;100126.91;;;31.57
82780;BMP280;72511;45.120;20.720;2023-09-19T13:30:26;100137.34;;;31.57
82780;BMP280;72511;45.120;20.720;2023-09-19T13:40:27;100132.91;;;31.80
82780;BMP280;72511;45.120;20.720;2023-09-19T13:50:28;100123.59;;;32.13
82780;BMP280;72511;45.120;20.720;2023-09-19T14:00:28;100133.31;;;31.77
82780;BMP280;72511;45.120;20.720;2023-09-19T14:10:29;100128.69;;;31.02
82780;BMP280;72511;45.120;20.720;2023-09-19T14:20:31;100152.28;;;30.58
82780;BMP280;72511;45.120;20.720;2023-09-19T14:30:32;100123.38;;;30.38
82780;BMP280;72511;45.120;20.720;2023-09-19T14:40:32;100160.13;;;30.27
82780;BMP280;72511;45.120;20.720;2023-09-19T14:50:33;100165.59;;;30.18
82780;BMP280;72511;45.120;20.720;2023-09-19T15:00:33;100178.44;;;29.81
82780;BMP280;72511;45.120;20.720;2023-09-19T15:10:34;100179.94;;;29.75
82780;BMP280;72511;45.120;20.720;2023-09-19T15:20:34;100188.47;;;29.45
82780;BMP280;72511;45.120;20.720;2023-09-19T15:30:38;100211.78;;;29.10
82780;BMP280;72511;45.120;20.720;2023-09-19T15:40:46;100197.47;;;29.06
82780;BMP280;72511;45.120;20.720;2023-09-19T15:50:47;100200.09;;;28.67
82780;BMP280;72511;45.120;20.720;2023-09-19T16:00:47;100218.59;;;28.35
82780;BMP280;72511;45.120;20.720;2023-09-19T16:10:48;100230.38;;;28.05
82780;BMP280;72511;45.120;20.720;2023-09-19T16:20:48;100230.47;;;27.77
82780;BMP280;72511;45.120;20.720;2023-09-19T16:30:49;100238.00;;;27.41
82780;BMP280;72511;45.120;20.720;2023-09-19T16:50:54;100257.56;;;26.67
82780;BMP280;72511;45.120;20.720;2023-09-19T17:00:54;100267.91;;;26.33
82780;BMP280;72511;45.120;20.720;2023-09-19T17:11:06;100303.91;;;25.87
82780;BMP280;72511;45.120;20.720;2023-09-19T17:21:06;100290.78;;;25.74
82780;BMP280;72511;45.120;20.720;2023-09-19T17:31:12;100313.06;;;25.69
82780;BMP280;72511;45.120;20.720;2023-09-19T17:41:14;100326.13;;;25.11
82780;BMP280;72511;45.120;20.720;2023-09-19T17:51:15;100324.66;;;25.23
82780;BMP280;72511;45.120;20.720;2023-09-19T18:01:18;100327.13;;;25.27
82780;BMP280;72511;45.120;20.720;2023-09-19T18:11:19;100359.25;;;25.17
82780;BMP280;72511;45.120;20.720;2023-09-19T18:21:20;100358.69;;;24.87
82780;BMP280;72511;45.120;20.720;2023-09-19T18:31:21;100367.28;;;24.65
82780;BMP280;72511;45.120;20.720;2023-09-19T18:41:22;100372.53;;;24.20
82780;BMP280;72511;45.120;20.720;2023-09-19T18:51:22;100388.78;;;24.05
82780;BMP280;72511;45.120;20.720;2023-09-19T19:01:23;100385.16;;;23.86
82780;BMP280;72511;45.120;20.720;2023-09-19T19:11:23;100393.31;;;23.39
82780;BMP280;72511;45.120;20.720;2023-09-19T19:21:24;100417.09;;;23.52
82780;BMP280;72511;45.120;20.720;2023-09-19T19:31:24;100426.00;;;23.35
82780;BMP280;72511;45.120;20.720;2023-09-19T19:41:26;100435.69;;;23.06
82780;BMP280;72511;45.120;20.720;2023-09-19T19:51:26;100440.22;;;22.93
82780;BMP280;72511;45.120;20.720;2023-09-19T20:01:27;100443.78;;;22.88
82780;BMP280;72511;45.120;20.720;2023-09-19T20:11:27;100449.63;;;22.40
82780;BMP280;72511;45.120;20.720;2023-09-19T20:21:28;100447.63;;;22.08
82780;BMP280;72511;45.120;20.720;2023-09-19T20:31:29;100446.41;;;21.98
82780;BMP280;72511;45.120;20.720;2023-09-19T20:41:29;100450.16;;;22.06
82780;BMP280;72511;45.120;20.720;2023-09-19T20:51:30;100465.91;;;21.78
82780;BMP280;72511;45.120;20.720;2023-09-19T21:01:32;100470.47;;;21.23
82780;BMP280;72511;45.120;20.720;2023-09-19T21:11:32;100478.38;;;21.04
82780;BMP280;72511;45.120;20.720;2023-09-19T21:21:34;100484.50;;;21.30
82780;BMP280;72511;45.120;20.720;2023-09-19T21:31:34;100485.53;;;21.33
82780;BMP280;72511;45.120;20.720;2023-09-19T21:41:35;100475.91;;;21.06
82780;BMP280;72511;45.120;20.720;2023-09-19T21:51:36;100476.84;;;21.03
82780;BMP280;72511;45.120;20.720;2023-09-19T22:01:36;100487.88;;;21.03
82780;BMP280;72511;45.120;20.720;2023-09-19T22:11:37;100483.53;;;20.91
82780;BMP280;72511;45.120;20.720;2023-09-19T22:21:37;100485.97;;;20.78
82780;BMP280;72511;45.120;20.720;2023-09-19T22:31:38;100486.13;;;20.64
82780;BMP280;72511;45.120;20.720;2023-09-19T22:41:38;100453.41;;;20.09
82780;BMP280;72511;45.120;20.720;2023-09-19T22:51:39;100475.19;;;20.13
82780;BMP280;72511;45.120;20.720;2023-09-19T23:01:40;100484.69;;;20.12
82780;BMP280;72511;45.120;20.720;2023-09-19T23:11:40;100494.88;;;20.06
82780;BMP280;72511;45.120;20.720;2023-09-19T23:21:41;100489.28;;;20.00
82780;BMP280;72511;45.120;20.720;2023-09-19T23:31:42;100502.38;;;19.85
82780;BMP280;72511;45.120;20.720;2023-09-19T23:41:42;100502.53;;;19.36
82780;BMP280;72511;45.120;20.720;2023-09-19T23:51:43;100491.56;;;19.02
